< Typhoon 197621 1976 Season Typhoon 197623 >
Typhoon 197622 (LOUISE)
General InformationTrack Information on Google Maps || Disaster Info.ResourceGoogle EarthGE AnimationAtom FeedGeoJSON
Detalied Best Track (Time Zone = UTC)
Year Month Day Hour Lat. Long. Pressure (hPa) Wind (kt) Class Image Chart
1976 10 28 00 6.0 152.7 1006 0 2 -- Chart
1976 10 28 06 7.0 153.5 1006 0 2 -- Chart
1976 10 28 12 8.5 153.5 1006 0 2 -- Chart
1976 10 28 18 8.7 152.0 1006 0 2 -- Chart
1976 10 29 00 9.0 151.3 1006 0 2 -- Chart
1976 10 29 06 9.2 150.6 1004 0 2 -- Chart
1976 10 29 12 9.3 150.0 1004 0 2 -- Chart
1976 10 29 18 9.4 149.5 1004 0 2 -- Chart
1976 10 30 00 9.5 148.9 1004 0 2 -- Chart
1976 10 30 06 9.5 148.5 1004 0 2 -- Chart
1976 10 30 12 9.5 147.0 1004 0 2 -- Chart
1976 10 30 18 9.7 146.0 1000 0 2 -- Chart
1976 10 31 00 10.0 144.8 996 0 9 -- Chart
1976 10 31 06 10.7 143.5 994 0 9 -- Chart
1976 10 31 12 11.0 142.0 992 0 9 -- Chart
1976 10 31 18 11.2 140.8 990 0 9 -- Chart
1976 11 1 00 11.2 139.7 980 0 9 -- Chart
1976 11 1 06 11.2 138.6 970 0 9 -- Chart
1976 11 1 12 11.3 137.3 960 0 9 -- Chart
1976 11 1 18 11.6 136.0 945 0 9 -- Chart
1976 11 2 00 12.2 134.8 935 0 9 -- Chart
1976 11 2 06 12.8 133.7 925 0 9 -- Chart
1976 11 2 12 13.5 132.4 910 0 9 -- Chart
1976 11 2 18 14.2 131.1 905 0 9 -- Chart
1976 11 3 00 15.0 129.8 910 0 9 -- Chart
1976 11 3 06 15.6 128.4 910 0 9 -- Chart
1976 11 3 12 16.3 127.4 895 0 9 -- Chart
1976 11 3 18 16.8 127.0 900 0 9 -- Chart
1976 11 4 00 17.5 126.8 900 0 9 -- Chart
1976 11 4 06 18.3 126.9 905 0 9 -- Chart
1976 11 4 12 19.1 127.0 910 0 9 -- Chart
1976 11 4 18 20.0 127.1 915 0 9 -- Chart
1976 11 5 00 20.8 127.2 920 0 9 -- Chart
1976 11 5 06 21.7 127.5 920 0 9 -- Chart
1976 11 5 12 22.4 128.0 930 0 9 -- Chart
1976 11 5 18 23.5 129.0 935 0 9 -- Chart
1976 11 6 00 24.7 130.5 935 0 9 -- Chart
1976 11 6 06 26.0 131.5 940 0 9 -- Chart
1976 11 6 12 27.2 133.0 960 0 9 -- Chart
1976 11 6 18 28.8 135.0 970 0 9 -- Chart
1976 11 7 00 29.7 137.6 980 0 9 -- Chart
1976 11 7 06 30.8 140.5 985 0 9 -- Chart
1976 11 7 12 31.5 143.5 990 0 9 -- Chart
1976 11 7 18 32.0 145.6 995 0 9 -- Chart
1976 11 8 00 32.5 147.5 1000 0 6 -- Chart
1976 11 8 06 34.0 150.0 1004 0 6 -- Chart
1976 11 8 12 35.0 155.0 1004 0 6 -- Chart
1976 11 8 18 37.0 160.0 1004 0 6 -- Chart
1976 11 9 00 40.0 162.0 998 0 6 -- Chart
1976 11 9 06 44.0 169.0 984 0 6 -- Chart
1976 11 9 12 46.0 175.0 972 0 6 -- Chart
1976 11 9 18 47.0 176.5 962 0 6 -- Chart
1976 11 10 00 47.7 178.0 944 0 6 -- Chart
1976 11 10 06 47.5 179.5 952 0 6 -- Chart
Japan Meteorological Agency Best Track Data | Correction Date : 2013-03-19
< Typhoon 197621 1976 Season Typhoon 197623 >

Help